sensor_id;sensor_type;location;lat;lon;timestamp;temperature;humidity
356;DHT22;62514;48.112;11.566;2023-12-20T00:01:03;6.40;1.00
356;DHT22;62514;48.112;11.566;2023-12-20T00:03:29;6.40;1.00
356;DHT22;62514;48.112;11.566;2023-12-20T00:05:54;6.30;1.00
356;DHT22;62514;48.112;11.566;2023-12-20T00:08:21;6.30;1.00
356;DHT22;62514;48.112;11.566;2023-12-20T00:10:46;6.40;1.00
356;DHT22;62514;48.112;11.566;2023-12-20T00:13:12;6.30;1.00
356;DHT22;62514;48.112;11.566;2023-12-20T00:15:38;6.30;1.00
356;DHT22;62514;48.112;11.566;2023-12-20T00:18:04;6.40;1.00
356;DHT22;62514;48.112;11.566;2023-12-20T00:20:29;6.40;1.00
356;DHT22;62514;48.112;11.566;2023-12-20T00:22:58;6.40;1.00
356;DHT22;62514;48.112;11.566;2023-12-20T00:25:24;6.40;1.00
356;DHT22;62514;48.112;11.566;2023-12-20T00:27:50;6.40;1.00
356;DHT22;62514;48.112;11.566;2023-12-20T00:30:16;6.40;1.00
356;DHT22;62514;48.112;11.566;2023-12-20T00:32:42;6.40;1.00
356;DHT22;62514;48.112;11.566;2023-12-20T00:35:18;6.40;1.00
356;DHT22;62514;48.112;11.566;2023-12-20T00:37:44;6.50;1.00
356;DHT22;62514;48.112;11.566;2023-12-20T00:40:10;6.50;1.00
356;DHT22;62514;48.112;11.566;2023-12-20T00:42:36;6.50;1.00
356;DHT22;62514;48.112;11.566;2023-12-20T00:45:02;6.60;1.00
356;DHT22;62514;48.112;11.566;2023-12-20T00:47:30;6.70;1.00
356;DHT22;62514;48.112;11.566;2023-12-20T00:49:56;6.70;1.00
356;DHT22;62514;48.112;11.566;2023-12-20T00:52:21;6.90;1.00
356;DHT22;62514;48.112;11.566;2023-12-20T00:54:48;6.90;1.00
356;DHT22;62514;48.112;11.566;2023-12-20T00:57:14;6.90;1.00
356;DHT22;62514;48.112;11.566;2023-12-20T00:59:39;6.90;1.00
356;DHT22;62514;48.112;11.566;2023-12-20T01:02:05;6.90;1.00
356;DHT22;62514;48.112;11.566;2023-12-20T01:04:31;6.90;1.00
356;DHT22;62514;48.112;11.566;2023-12-20T01:06:57;6.90;1.00
356;DHT22;62514;48.112;11.566;2023-12-20T01:09:23;7.00;1.00
356;DHT22;62514;48.112;11.566;2023-12-20T01:11:52;7.00;1.00
356;DHT22;62514;48.112;11.566;2023-12-20T01:14:17;7.10;1.00
356;DHT22;62514;48.112;11.566;2023-12-20T01:16:43;7.00;1.00
356;DHT22;62514;48.112;11.566;2023-12-20T01:19:09;7.00;1.00
356;DHT22;62514;48.112;11.566;2023-12-20T01:21:35;7.00;1.00
356;DHT22;62514;48.112;11.566;2023-12-20T01:24:00;6.90;1.00
356;DHT22;62514;48.112;11.566;2023-12-20T01:26:26;7.00;1.00
356;DHT22;62514;48.112;11.566;2023-12-20T01:28:51;7.00;1.00
356;DHT22;62514;48.112;11.566;2023-12-20T01:31:17;6.90;1.00
356;DHT22;62514;48.112;11.566;2023-12-20T01:33:43;6.90;1.00
356;DHT22;62514;48.112;11.566;2023-12-20T01:36:09;6.90;1.00
356;DHT22;62514;48.112;11.566;2023-12-20T01:38:34;6.90;1.00
356;DHT22;62514;48.112;11.566;2023-12-20T01:41:00;6.90;1.00
356;DHT22;62514;48.112;11.566;2023-12-20T01:43:26;6.90;1.00
356;DHT22;62514;48.112;11.566;2023-12-20T01:45:52;6.90;1.00
356;DHT22;62514;48.112;11.566;2023-12-20T01:48:18;6.90;1.00
356;DHT22;62514;48.112;11.566;2023-12-20T01:50:45;6.90;1.00
356;DHT22;62514;48.112;11.566;2023-12-20T01:53:12;6.90;1.00
356;DHT22;62514;48.112;11.566;2023-12-20T01:55:40;7.00;1.00
356;DHT22;62514;48.112;11.566;2023-12-20T01:58:07;7.00;1.00
356;DHT22;62514;48.112;11.566;2023-12-20T02:00:34;6.90;1.00
356;DHT22;62514;48.112;11.566;2023-12-20T02:03:01;6.90;1.00
356;DHT22;62514;48.112;11.566;2023-12-20T02:05:28;6.90;1.00
356;DHT22;62514;48.112;11.566;2023-12-20T02:07:54;7.00;1.00
356;DHT22;62514;48.112;11.566;2023-12-20T02:10:20;7.00;1.00
356;DHT22;62514;48.112;11.566;2023-12-20T02:12:46;7.10;1.00
356;DHT22;62514;48.112;11.566;2023-12-20T02:15:11;7.00;1.00
356;DHT22;62514;48.112;11.566;2023-12-20T02:17:38;7.10;1.00
356;DHT22;62514;48.112;11.566;2023-12-20T02:20:04;7.10;1.00
356;DHT22;62514;48.112;11.566;2023-12-20T02:22:31;7.10;1.00
356;DHT22;62514;48.112;11.566;2023-12-20T02:24:57;7.20;1.00
356;DHT22;62514;48.112;11.566;2023-12-20T02:27:23;7.20;1.00
356;DHT22;62514;48.112;11.566;2023-12-20T02:29:50;7.20;1.00
356;DHT22;62514;48.112;11.566;2023-12-20T02:32:17;7.30;1.00
356;DHT22;62514;48.112;11.566;2023-12-20T02:34:43;7.30;1.00
356;DHT22;62514;48.112;11.566;2023-12-20T02:37:08;7.30;1.00
356;DHT22;62514;48.112;11.566;2023-12-20T02:39:34;7.30;1.00
356;DHT22;62514;48.112;11.566;2023-12-20T02:42:00;7.40;1.00
356;DHT22;62514;48.112;11.566;2023-12-20T02:44:25;7.40;1.00
356;DHT22;62514;48.112;11.566;2023-12-20T02:46:51;7.40;1.00
356;DHT22;62514;48.112;11.566;2023-12-20T02:49:17;7.40;1.00
356;DHT22;62514;48.112;11.566;2023-12-20T02:51:42;7.40;1.00
356;DHT22;62514;48.112;11.566;2023-12-20T02:54:08;7.40;1.00
356;DHT22;62514;48.112;11.566;2023-12-20T02:56:34;7.50;1.00
356;DHT22;62514;48.112;11.566;2023-12-20T02:58:59;7.50;1.00
356;DHT22;62514;48.112;11.566;2023-12-20T03:01:26;7.50;1.00
356;DHT22;62514;48.112;11.566;2023-12-20T03:03:51;7.50;1.00
356;DHT22;62514;48.112;11.566;2023-12-20T03:06:20;7.50;1.00
356;DHT22;62514;48.112;11.566;2023-12-20T03:08:46;7.50;1.00
356;DHT22;62514;48.112;11.566;2023-12-20T03:11:12;7.40;1.00
356;DHT22;62514;48.112;11.566;2023-12-20T03:13:37;7.50;1.00
356;DHT22;62514;48.112;11.566;2023-12-20T03:16:13;7.40;1.00
356;DHT22;62514;48.112;11.566;2023-12-20T03:18:39;7.40;1.00
356;DHT22;62514;48.112;11.566;2023-12-20T03:21:05;7.40;1.00
356;DHT22;62514;48.112;11.566;2023-12-20T03:23:31;7.30;1.00
356;DHT22;62514;48.112;11.566;2023-12-20T03:25:59;7.30;1.00
356;DHT22;62514;48.112;11.566;2023-12-20T03:28:26;7.30;1.00
356;DHT22;62514;48.112;11.566;2023-12-20T03:30:52;7.40;1.00
356;DHT22;62514;48.112;11.566;2023-12-20T03:33:17;7.40;1.00
356;DHT22;62514;48.112;11.566;2023-12-20T03:35:43;7.40;1.00
356;DHT22;62514;48.112;11.566;2023-12-20T03:38:09;7.40;1.00
356;DHT22;62514;48.112;11.566;2023-12-20T03:40:34;7.40;1.00
356;DHT22;62514;48.112;11.566;2023-12-20T03:43:00;7.40;1.00
356;DHT22;62514;48.112;11.566;2023-12-20T03:45:26;7.30;1.00
356;DHT22;62514;48.112;11.566;2023-12-20T03:47:52;7.30;1.00
356;DHT22;62514;48.112;11.566;2023-12-20T03:50:22;7.40;1.00
356;DHT22;62514;48.112;11.566;2023-12-20T03:52:48;7.40;1.00
356;DHT22;62514;48.112;11.566;2023-12-20T03:55:14;7.30;1.60
356;DHT22;62514;48.112;11.566;2023-12-20T03:57:39;7.20;4.60
356;DHT22;62514;48.112;11.566;2023-12-20T04:00:06;7.30;7.80
356;DHT22;62514;48.112;11.566;2023-12-20T04:02:39;7.20;9.00
356;DHT22;62514;48.112;11.566;2023-12-20T04:05:06;7.20;10.00
356;DHT22;62514;48.112;11.566;2023-12-20T04:07:32;7.10;11.50
356;DHT22;62514;48.112;11.566;2023-12-20T04:09:58;7.10;12.40
356;DHT22;62514;48.112;11.566;2023-12-20T04:12:23;7.10;13.00
356;DHT22;62514;48.112;11.566;2023-12-20T04:14:49;7.00;13.90
356;DHT22;62514;48.112;11.566;2023-12-20T04:17:18;7.10;15.00
356;DHT22;62514;48.112;11.566;2023-12-20T04:19:43;7.00;15.50
356;DHT22;62514;48.112;11.566;2023-12-20T04:22:09;7.00;16.40
356;DHT22;62514;48.112;11.566;2023-12-20T04:24:35;7.00;17.00
356;DHT22;62514;48.112;11.566;2023-12-20T04:27:01;7.00;17.30
356;DHT22;62514;48.112;11.566;2023-12-20T04:29:27;6.90;17.90
356;DHT22;62514;48.112;11.566;2023-12-20T04:31:52;6.90;18.50
356;DHT22;62514;48.112;11.566;2023-12-20T04:34:18;6.80;19.10
356;DHT22;62514;48.112;11.566;2023-12-20T04:36:44;6.70;20.00
356;DHT22;62514;48.112;11.566;2023-12-20T04:39:11;6.60;20.60
356;DHT22;62514;48.112;11.566;2023-12-20T04:41:36;6.60;20.60
356;DHT22;62514;48.112;11.566;2023-12-20T04:44:02;6.50;21.40
356;DHT22;62514;48.112;11.566;2023-12-20T04:46:28;6.60;21.70
356;DHT22;62514;48.112;11.566;2023-12-20T04:48:54;6.60;21.60
356;DHT22;62514;48.112;11.566;2023-12-20T04:51:20;6.60;22.10
356;DHT22;62514;48.112;11.566;2023-12-20T04:53:45;6.50;22.60
356;DHT22;62514;48.112;11.566;2023-12-20T04:56:11;6.60;22.60
356;DHT22;62514;48.112;11.566;2023-12-20T04:58:37;6.60;22.80
356;DHT22;62514;48.112;11.566;2023-12-20T05:01:04;6.40;25.10
356;DHT22;62514;48.112;11.566;2023-12-20T05:03:31;6.40;25.30
356;DHT22;62514;48.112;11.566;2023-12-20T05:05:56;6.40;26.60
356;DHT22;62514;48.112;11.566;2023-12-20T05:08:22;6.40;27.60
356;DHT22;62514;48.112;11.566;2023-12-20T05:10:48;6.20;29.40
356;DHT22;62514;48.112;11.566;2023-12-20T05:13:13;6.20;29.80
356;DHT22;62514;48.112;11.566;2023-12-20T05:15:39;6.20;31.50
356;DHT22;62514;48.112;11.566;2023-12-20T05:18:05;6.10;32.70
356;DHT22;62514;48.112;11.566;2023-12-20T05:20:31;6.10;33.30
356;DHT22;62514;48.112;11.566;2023-12-20T05:22:56;6.00;33.50
356;DHT22;62514;48.112;11.566;2023-12-20T05:25:22;6.10;34.40
356;DHT22;62514;48.112;11.566;2023-12-20T05:27:48;5.90;35.70
356;DHT22;62514;48.112;11.566;2023-12-20T05:30:13;5.70;37.30
356;DHT22;62514;48.112;11.566;2023-12-20T05:32:39;5.80;37.80
356;DHT22;62514;48.112;11.566;2023-12-20T05:35:05;5.70;38.80
356;DHT22;62514;48.112;11.566;2023-12-20T05:37:31;5.70;39.30
356;DHT22;62514;48.112;11.566;2023-12-20T05:39:57;5.70;40.30
356;DHT22;62514;48.112;11.566;2023-12-20T05:42:22;5.60;40.20
356;DHT22;62514;48.112;11.566;2023-12-20T05:44:48;5.60;41.20
356;DHT22;62514;48.112;11.566;2023-12-20T05:47:14;5.60;41.70
356;DHT22;62514;48.112;11.566;2023-12-20T05:49:40;5.60;41.00
356;DHT22;62514;48.112;11.566;2023-12-20T05:52:05;5.50;41.40
356;DHT22;62514;48.112;11.566;2023-12-20T05:54:31;5.50;41.00
356;DHT22;62514;48.112;11.566;2023-12-20T05:56:57;5.50;40.50
356;DHT22;62514;48.112;11.566;2023-12-20T05:59:22;5.40;40.20
356;DHT22;62514;48.112;11.566;2023-12-20T06:01:48;5.40;40.50
356;DHT22;62514;48.112;11.566;2023-12-20T06:04:14;5.30;40.90
356;DHT22;62514;48.112;11.566;2023-12-20T06:06:43;5.40;41.00
356;DHT22;62514;48.112;11.566;2023-12-20T06:09:09;5.40;40.80
356;DHT22;62514;48.112;11.566;2023-12-20T06:11:35;5.30;40.20
356;DHT22;62514;48.112;11.566;2023-12-20T06:14:00;5.30;41.40
356;DHT22;62514;48.112;11.566;2023-12-20T06:16:26;5.20;40.80
356;DHT22;62514;48.112;11.566;2023-12-20T06:18:51;5.20;41.20
356;DHT22;62514;48.112;11.566;2023-12-20T06:21:17;5.20;41.50
356;DHT22;62514;48.112;11.566;2023-12-20T06:23:43;5.10;40.80
356;DHT22;62514;48.112;11.566;2023-12-20T06:26:09;5.10;41.00
356;DHT22;62514;48.112;11.566;2023-12-20T06:28:34;5.10;40.70
356;DHT22;62514;48.112;11.566;2023-12-20T06:31:00;5.00;40.00
356;DHT22;62514;48.112;11.566;2023-12-20T06:33:26;5.00;41.00
356;DHT22;62514;48.112;11.566;2023-12-20T06:35:52;4.80;41.40
356;DHT22;62514;48.112;11.566;2023-12-20T06:38:18;4.80;42.10
356;DHT22;62514;48.112;11.566;2023-12-20T06:40:44;4.70;43.50
356;DHT22;62514;48.112;11.566;2023-12-20T06:43:11;4.60;44.00
356;DHT22;62514;48.112;11.566;2023-12-20T06:45:37;4.60;44.00
356;DHT22;62514;48.112;11.566;2023-12-20T06:48:03;4.60;44.30
356;DHT22;62514;48.112;11.566;2023-12-20T06:50:29;4.60;44.00
356;DHT22;62514;48.112;11.566;2023-12-20T06:52:54;4.60;44.20
356;DHT22;62514;48.112;11.566;2023-12-20T06:55:20;4.60;44.40
356;DHT22;62514;48.112;11.566;2023-12-20T06:57:46;4.70;44.10
356;DHT22;62514;48.112;11.566;2023-12-20T07:00:12;4.50;43.50
356;DHT22;62514;48.112;11.566;2023-12-20T07:02:38;4.50;44.80
356;DHT22;62514;48.112;11.566;2023-12-20T07:05:04;4.50;44.90
356;DHT22;62514;48.112;11.566;2023-12-20T07:07:30;4.50;44.80
356;DHT22;62514;48.112;11.566;2023-12-20T07:09:55;4.50;44.70
356;DHT22;62514;48.112;11.566;2023-12-20T07:12:21;4.50;44.80
356;DHT22;62514;48.112;11.566;2023-12-20T07:14:47;4.40;45.40
356;DHT22;62514;48.112;11.566;2023-12-20T07:17:13;4.40;44.40
356;DHT22;62514;48.112;11.566;2023-12-20T07:19:41;4.50;44.50
356;DHT22;62514;48.112;11.566;2023-12-20T07:22:08;4.50;44.40
356;DHT22;62514;48.112;11.566;2023-12-20T07:24:34;4.50;44.40
356;DHT22;62514;48.112;11.566;2023-12-20T07:27:00;4.40;44.40
356;DHT22;62514;48.112;11.566;2023-12-20T07:29:26;4.30;44.40
356;DHT22;62514;48.112;11.566;2023-12-20T07:31:53;4.40;45.30
356;DHT22;62514;48.112;11.566;2023-12-20T07:34:20;4.40;44.90
356;DHT22;62514;48.112;11.566;2023-12-20T07:36:46;4.40;44.40
356;DHT22;62514;48.112;11.566;2023-12-20T07:39:12;4.30;43.40
356;DHT22;62514;48.112;11.566;2023-12-20T07:41:38;4.40;43.60
356;DHT22;62514;48.112;11.566;2023-12-20T07:44:04;4.40;44.20
356;DHT22;62514;48.112;11.566;2023-12-20T07:46:30;4.30;44.10
356;DHT22;62514;48.112;11.566;2023-12-20T07:48:56;4.30;44.40
356;DHT22;62514;48.112;11.566;2023-12-20T07:51:21;4.30;44.40
356;DHT22;62514;48.112;11.566;2023-12-20T07:53:47;4.30;44.40
356;DHT22;62514;48.112;11.566;2023-12-20T07:56:17;4.40;44.60
356;DHT22;62514;48.112;11.566;2023-12-20T07:58:43;4.40;44.40
356;DHT22;62514;48.112;11.566;2023-12-20T08:01:09;4.40;43.30
356;DHT22;62514;48.112;11.566;2023-12-20T08:03:35;4.40;43.70
356;DHT22;62514;48.112;11.566;2023-12-20T08:06:00;4.40;43.30
356;DHT22;62514;48.112;11.566;2023-12-20T08:08:26;4.40;43.60
356;DHT22;62514;48.112;11.566;2023-12-20T08:10:52;4.50;43.40
356;DHT22;62514;48.112;11.566;2023-12-20T08:13:17;4.40;42.90
356;DHT22;62514;48.112;11.566;2023-12-20T08:15:43;4.40;43.20
356;DHT22;62514;48.112;11.566;2023-12-20T08:18:09;4.40;43.40
356;DHT22;62514;48.112;11.566;2023-12-20T08:20:34;4.40;43.30
356;DHT22;62514;48.112;11.566;2023-12-20T08:23:00;4.50;43.40
356;DHT22;62514;48.112;11.566;2023-12-20T08:25:26;4.40;43.10
356;DHT22;62514;48.112;11.566;2023-12-20T08:27:53;4.40;44.00
356;DHT22;62514;48.112;11.566;2023-12-20T08:30:18;4.40;44.40
356;DHT22;62514;48.112;11.566;2023-12-20T08:32:48;4.30;44.50
356;DHT22;62514;48.112;11.566;2023-12-20T08:35:14;4.30;45.60
356;DHT22;62514;48.112;11.566;2023-12-20T08:37:39;4.40;46.20
356;DHT22;62514;48.112;11.566;2023-12-20T08:40:06;4.40;46.10
356;DHT22;62514;48.112;11.566;2023-12-20T08:42:31;4.40;45.40
356;DHT22;62514;48.112;11.566;2023-12-20T08:44:58;4.40;45.40
356;DHT22;62514;48.112;11.566;2023-12-20T08:47:26;4.30;44.70
356;DHT22;62514;48.112;11.566;2023-12-20T08:49:52;4.50;45.00
356;DHT22;62514;48.112;11.566;2023-12-20T08:52:22;4.40;44.80
356;DHT22;62514;48.112;11.566;2023-12-20T08:54:52;4.50;45.00
356;DHT22;62514;48.112;11.566;2023-12-20T08:57:20;4.40;43.50
356;DHT22;62514;48.112;11.566;2023-12-20T08:59:47;4.50;43.90
356;DHT22;62514;48.112;11.566;2023-12-20T09:02:13;4.40;43.80
356;DHT22;62514;48.112;11.566;2023-12-20T09:04:39;4.40;44.40
356;DHT22;62514;48.112;11.566;2023-12-20T09:07:04;4.50;44.40
356;DHT22;62514;48.112;11.566;2023-12-20T09:09:30;4.60;44.30
356;DHT22;62514;48.112;11.566;2023-12-20T09:11:57;4.60;43.60
356;DHT22;62514;48.112;11.566;2023-12-20T09:14:23;4.60;43.50
356;DHT22;62514;48.112;11.566;2023-12-20T09:16:49;4.60;43.70
356;DHT22;62514;48.112;11.566;2023-12-20T09:19:17;4.60;44.00
356;DHT22;62514;48.112;11.566;2023-12-20T09:21:43;4.60;43.90
356;DHT22;62514;48.112;11.566;2023-12-20T09:24:09;4.70;43.80
356;DHT22;62514;48.112;11.566;2023-12-20T09:26:35;4.70;44.40
356;DHT22;62514;48.112;11.566;2023-12-20T09:29:00;4.80;44.30
356;DHT22;62514;48.112;11.566;2023-12-20T09:31:26;4.80;43.60
356;DHT22;62514;48.112;11.566;2023-12-20T09:33:52;4.90;42.80
356;DHT22;62514;48.112;11.566;2023-12-20T09:36:18;4.80;42.30
356;DHT22;62514;48.112;11.566;2023-12-20T09:38:44;4.90;42.40
356;DHT22;62514;48.112;11.566;2023-12-20T09:41:09;4.90;42.20
356;DHT22;62514;48.112;11.566;2023-12-20T09:43:38;4.90;41.60
356;DHT22;62514;48.112;11.566;2023-12-20T09:46:06;4.90;42.50
356;DHT22;62514;48.112;11.566;2023-12-20T09:48:33;4.80;42.50
356;DHT22;62514;48.112;11.566;2023-12-20T09:50:59;4.80;43.50
356;DHT22;62514;48.112;11.566;2023-12-20T09:53:25;4.70;43.70
356;DHT22;62514;48.112;11.566;2023-12-20T09:55:58;4.70;43.80
356;DHT22;62514;48.112;11.566;2023-12-20T09:58:25;4.70;44.50
356;DHT22;62514;48.112;11.566;2023-12-20T10:00:51;4.80;43.30
356;DHT22;62514;48.112;11.566;2023-12-20T10:03:24;4.70;44.00
356;DHT22;62514;48.112;11.566;2023-12-20T10:05:54;4.80;44.50
356;DHT22;62514;48.112;11.566;2023-12-20T10:08:22;4.80;44.50
356;DHT22;62514;48.112;11.566;2023-12-20T10:10:48;4.80;44.30
356;DHT22;62514;48.112;11.566;2023-12-20T10:13:15;4.80;44.30
356;DHT22;62514;48.112;11.566;2023-12-20T10:15:41;4.90;44.50
356;DHT22;62514;48.112;11.566;2023-12-20T10:18:06;4.90;44.40
356;DHT22;62514;48.112;11.566;2023-12-20T10:20:33;5.00;44.00
356;DHT22;62514;48.112;11.566;2023-12-20T10:22:59;5.00;43.80
356;DHT22;62514;48.112;11.566;2023-12-20T10:25:25;5.00;43.00
356;DHT22;62514;48.112;11.566;2023-12-20T10:28:12;5.00;42.80
356;DHT22;62514;48.112;11.566;2023-12-20T10:30:38;5.00;42.50
356;DHT22;62514;48.112;11.566;2023-12-20T10:33:06;5.10;42.90
356;DHT22;62514;48.112;11.566;2023-12-20T10:35:34;5.10;43.20
356;DHT22;62514;48.112;11.566;2023-12-20T10:38:02;5.10;43.20
356;DHT22;62514;48.112;11.566;2023-12-20T10:40:29;5.20;43.20
356;DHT22;62514;48.112;11.566;2023-12-20T10:42:56;5.20;42.80
356;DHT22;62514;48.112;11.566;2023-12-20T10:45:22;5.30;42.60
356;DHT22;62514;48.112;11.566;2023-12-20T10:47:49;5.30;43.70
356;DHT22;62514;48.112;11.566;2023-12-20T10:50:15;5.20;43.30
356;DHT22;62514;48.112;11.566;2023-12-20T10:52:42;5.00;42.50
356;DHT22;62514;48.112;11.566;2023-12-20T10:55:08;5.00;43.60
356;DHT22;62514;48.112;11.566;2023-12-20T10:57:35;5.00;43.60
356;DHT22;62514;48.112;11.566;2023-12-20T11:00:02;5.00;43.20
356;DHT22;62514;48.112;11.566;2023-12-20T11:02:38;5.00;43.70
356;DHT22;62514;48.112;11.566;2023-12-20T11:05:28;5.00;44.20
356;DHT22;62514;48.112;11.566;2023-12-20T11:08:09;5.00;44.50
356;DHT22;62514;48.112;11.566;2023-12-20T11:10:48;5.00;45.30
356;DHT22;62514;48.112;11.566;2023-12-20T11:13:21;5.00;45.40
356;DHT22;62514;48.112;11.566;2023-12-20T11:15:48;5.00;44.20
356;DHT22;62514;48.112;11.566;2023-12-20T11:18:14;5.00;44.20
356;DHT22;62514;48.112;11.566;2023-12-20T11:20:41;5.00;43.70
356;DHT22;62514;48.112;11.566;2023-12-20T11:23:08;5.00;44.60
356;DHT22;62514;48.112;11.566;2023-12-20T11:25:46;5.00;44.80
356;DHT22;62514;48.112;11.566;2023-12-20T11:28:13;5.00;45.40
356;DHT22;62514;48.112;11.566;2023-12-20T11:30:50;5.10;45.20
356;DHT22;62514;48.112;11.566;2023-12-20T11:33:16;5.10;44.70
356;DHT22;62514;48.112;11.566;2023-12-20T11:35:43;5.20;44.50
356;DHT22;62514;48.112;11.566;2023-12-20T11:38:09;5.20;44.30
356;DHT22;62514;48.112;11.566;2023-12-20T11:40:36;5.30;44.40
356;DHT22;62514;48.112;11.566;2023-12-20T11:43:03;5.40;43.70
356;DHT22;62514;48.112;11.566;2023-12-20T11:45:29;5.40;42.80
356;DHT22;62514;48.112;11.566;2023-12-20T11:47:55;5.30;41.70
356;DHT22;62514;48.112;11.566;2023-12-20T11:50:24;5.40;42.80
356;DHT22;62514;48.112;11.566;2023-12-20T11:52:52;5.40;42.70
356;DHT22;62514;48.112;11.566;2023-12-20T11:55:19;5.50;42.70
356;DHT22;62514;48.112;11.566;2023-12-20T11:57:45;5.60;42.10
356;DHT22;62514;48.112;11.566;2023-12-20T12:00:11;5.70;41.50
356;DHT22;62514;48.112;11.566;2023-12-20T12:02:37;5.70;39.30
356;DHT22;62514;48.112;11.566;2023-12-20T12:05:02;5.70;39.40
356;DHT22;62514;48.112;11.566;2023-12-20T12:07:31;5.80;39.60
356;DHT22;62514;48.112;11.566;2023-12-20T12:09:57;5.70;38.90
356;DHT22;62514;48.112;11.566;2023-12-20T12:12:23;5.80;38.90
356;DHT22;62514;48.112;11.566;2023-12-20T12:14:50;5.70;38.80
356;DHT22;62514;48.112;11.566;2023-12-20T12:17:16;5.80;38.50
356;DHT22;62514;48.112;11.566;2023-12-20T12:19:43;5.60;37.80
356;DHT22;62514;48.112;11.566;2023-12-20T12:22:13;5.70;38.10
356;DHT22;62514;48.112;11.566;2023-12-20T12:24:43;5.70;38.40
356;DHT22;62514;48.112;11.566;2023-12-20T12:27:10;5.70;36.50
356;DHT22;62514;48.112;11.566;2023-12-20T12:29:36;5.80;36.20
356;DHT22;62514;48.112;11.566;2023-12-20T12:32:07;5.80;36.10
356;DHT22;62514;48.112;11.566;2023-12-20T12:34:34;5.80;36.10
356;DHT22;62514;48.112;11.566;2023-12-20T12:37:00;5.70;36.10
356;DHT22;62514;48.112;11.566;2023-12-20T12:39:26;5.70;36.50
356;DHT22;62514;48.112;11.566;2023-12-20T12:41:52;5.70;36.60
356;DHT22;62514;48.112;11.566;2023-12-20T12:44:18;5.60;36.80
356;DHT22;62514;48.112;11.566;2023-12-20T12:46:46;5.60;37.70
356;DHT22;62514;48.112;11.566;2023-12-20T12:49:15;5.60;37.90
356;DHT22;62514;48.112;11.566;2023-12-20T12:51:41;5.60;37.00
356;DHT22;62514;48.112;11.566;2023-12-20T12:54:06;5.50;37.00
356;DHT22;62514;48.112;11.566;2023-12-20T12:56:32;5.60;37.20
356;DHT22;62514;48.112;11.566;2023-12-20T12:58:58;5.50;37.10
356;DHT22;62514;48.112;11.566;2023-12-20T13:01:24;5.70;37.30
356;DHT22;62514;48.112;11.566;2023-12-20T13:03:50;5.50;37.40
356;DHT22;62514;48.112;11.566;2023-12-20T13:06:15;5.50;37.70
356;DHT22;62514;48.112;11.566;2023-12-20T13:08:41;5.50;37.40
356;DHT22;62514;48.112;11.566;2023-12-20T13:11:07;5.50;37.10
356;DHT22;62514;48.112;11.566;2023-12-20T13:13:32;5.50;37.80
356;DHT22;62514;48.112;11.566;2023-12-20T13:15:58;5.50;38.30
356;DHT22;62514;48.112;11.566;2023-12-20T13:18:24;5.40;38.70
356;DHT22;62514;48.112;11.566;2023-12-20T13:20:50;5.20;35.90
356;DHT22;62514;48.112;11.566;2023-12-20T13:23:16;5.10;34.60
356;DHT22;62514;48.112;11.566;2023-12-20T13:25:43;5.10;35.20
356;DHT22;62514;48.112;11.566;2023-12-20T13:28:11;4.90;35.30
356;DHT22;62514;48.112;11.566;2023-12-20T13:30:36;4.60;36.60
356;DHT22;62514;48.112;11.566;2023-12-20T13:33:02;4.50;37.20
356;DHT22;62514;48.112;11.566;2023-12-20T13:35:28;4.40;37.60
356;DHT22;62514;48.112;11.566;2023-12-20T13:37:54;4.40;37.40
356;DHT22;62514;48.112;11.566;2023-12-20T13:40:19;4.40;37.50
356;DHT22;62514;48.112;11.566;2023-12-20T13:42:45;4.30;37.40
356;DHT22;62514;48.112;11.566;2023-12-20T13:45:11;4.30;38.30
356;DHT22;62514;48.112;11.566;2023-12-20T13:47:36;4.30;36.70
356;DHT22;62514;48.112;11.566;2023-12-20T13:50:03;4.30;38.30
356;DHT22;62514;48.112;11.566;2023-12-20T13:52:29;4.30;38.10
356;DHT22;62514;48.112;11.566;2023-12-20T13:54:55;4.50;37.00
356;DHT22;62514;48.112;11.566;2023-12-20T13:57:20;4.40;35.60
356;DHT22;62514;48.112;11.566;2023-12-20T13:59:46;4.30;35.60
356;DHT22;62514;48.112;11.566;2023-12-20T14:02:12;4.20;35.50
356;DHT22;62514;48.112;11.566;2023-12-20T14:04:37;4.20;35.30
356;DHT22;62514;48.112;11.566;2023-12-20T14:07:05;4.20;35.50
356;DHT22;62514;48.112;11.566;2023-12-20T14:09:31;4.30;35.00
356;DHT22;62514;48.112;11.566;2023-12-20T14:11:56;4.30;35.10
356;DHT22;62514;48.112;11.566;2023-12-20T14:14:22;4.20;35.50
356;DHT22;62514;48.112;11.566;2023-12-20T14:16:48;4.20;33.60
356;DHT22;62514;48.112;11.566;2023-12-20T14:19:13;4.30;33.20
356;DHT22;62514;48.112;11.566;2023-12-20T14:21:39;4.50;33.40
356;DHT22;62514;48.112;11.566;2023-12-20T14:24:05;4.40;31.90
356;DHT22;62514;48.112;11.566;2023-12-20T14:26:31;4.40;31.60
356;DHT22;62514;48.112;11.566;2023-12-20T14:28:57;4.40;31.50
356;DHT22;62514;48.112;11.566;2023-12-20T14:31:23;4.40;32.30
356;DHT22;62514;48.112;11.566;2023-12-20T14:33:50;4.50;32.80
356;DHT22;62514;48.112;11.566;2023-12-20T14:36:19;4.40;32.90
356;DHT22;62514;48.112;11.566;2023-12-20T14:38:45;4.40;32.90
356;DHT22;62514;48.112;11.566;2023-12-20T14:41:12;4.40;32.90
356;DHT22;62514;48.112;11.566;2023-12-20T14:43:38;4.50;32.10
356;DHT22;62514;48.112;11.566;2023-12-20T14:46:03;4.40;32.90
356;DHT22;62514;48.112;11.566;2023-12-20T14:48:31;4.40;32.90
356;DHT22;62514;48.112;11.566;2023-12-20T14:50:57;4.40;32.60
356;DHT22;62514;48.112;11.566;2023-12-20T14:53:24;4.40;32.90
356;DHT22;62514;48.112;11.566;2023-12-20T14:55:50;4.40;33.60
356;DHT22;62514;48.112;11.566;2023-12-20T14:58:17;4.40;31.50
356;DHT22;62514;48.112;11.566;2023-12-20T15:00:42;4.40;31.30
356;DHT22;62514;48.112;11.566;2023-12-20T15:03:09;4.40;31.20
356;DHT22;62514;48.112;11.566;2023-12-20T15:05:35;4.40;32.30
356;DHT22;62514;48.112;11.566;2023-12-20T15:08:01;4.50;32.10
356;DHT22;62514;48.112;11.566;2023-12-20T15:10:27;4.50;31.80
356;DHT22;62514;48.112;11.566;2023-12-20T15:12:53;4.50;29.90
356;DHT22;62514;48.112;11.566;2023-12-20T15:15:19;4.50;29.10
356;DHT22;62514;48.112;11.566;2023-12-20T15:17:45;4.40;29.00
356;DHT22;62514;48.112;11.566;2023-12-20T15:20:11;4.40;29.40
356;DHT22;62514;48.112;11.566;2023-12-20T15:22:37;4.40;27.70
356;DHT22;62514;48.112;11.566;2023-12-20T15:25:05;4.40;26.80
356;DHT22;62514;48.112;11.566;2023-12-20T15:27:34;4.40;27.40
356;DHT22;62514;48.112;11.566;2023-12-20T15:30:03;4.50;27.50
356;DHT22;62514;48.112;11.566;2023-12-20T15:32:28;4.50;26.60
356;DHT22;62514;48.112;11.566;2023-12-20T15:34:54;4.50;26.50
356;DHT22;62514;48.112;11.566;2023-12-20T15:37:20;4.50;25.60
356;DHT22;62514;48.112;11.566;2023-12-20T15:39:45;4.40;25.80
356;DHT22;62514;48.112;11.566;2023-12-20T15:42:11;4.50;25.70
356;DHT22;62514;48.112;11.566;2023-12-20T15:44:37;4.40;25.30
356;DHT22;62514;48.112;11.566;2023-12-20T15:47:03;4.40;25.00
356;DHT22;62514;48.112;11.566;2023-12-20T15:49:28;4.40;24.60
356;DHT22;62514;48.112;11.566;2023-12-20T15:51:54;4.30;24.50
356;DHT22;62514;48.112;11.566;2023-12-20T15:54:20;4.30;24.20
356;DHT22;62514;48.112;11.566;2023-12-20T15:56:45;4.30;24.50
356;DHT22;62514;48.112;11.566;2023-12-20T15:59:13;4.20;23.80